sensor_id;sensor_type;location;lat;lon;timestamp;P1;durP1;ratioP1;P2;durP2;ratioP2
12024;SDS011;6073;53.230;10.444;2024-02-26T00:02:15;2.17;;;1.95;;
12024;SDS011;6073;53.230;10.444;2024-02-26T00:04:41;2.33;;;2.13;;
12024;SDS011;6073;53.230;10.444;2024-02-26T00:07:07;2.90;;;2.25;;
12024;SDS011;6073;53.230;10.444;2024-02-26T00:09:32;2.17;;;1.95;;
12024;SDS011;6073;53.230;10.444;2024-02-26T00:12:01;5.00;;;2.05;;
12024;SDS011;6073;53.230;10.444;2024-02-26T00:14:28;4.13;;;2.50;;
12024;SDS011;6073;53.230;10.444;2024-02-26T00:16:57;2.80;;;2.20;;
12024;SDS011;6073;53.230;10.444;2024-02-26T00:19:23;3.70;;;2.45;;
12024;SDS011;6073;53.230;10.444;2024-02-26T00:21:48;4.30;;;2.67;;
12024;SDS011;6073;53.230;10.444;2024-02-26T00:24:14;2.38;;;1.92;;
12024;SDS011;6073;53.230;10.444;2024-02-26T00:26:39;3.08;;;2.17;;
12024;SDS011;6073;53.230;10.444;2024-02-26T00:29:05;3.50;;;2.33;;
12024;SDS011;6073;53.230;10.444;2024-02-26T00:31:30;2.15;;;1.95;;
12024;SDS011;6073;53.230;10.444;2024-02-26T00:33:56;2.45;;;2.25;;
12024;SDS011;6073;53.230;10.444;2024-02-26T00:36:22;2.72;;;1.85;;
12024;SDS011;6073;53.230;10.444;2024-02-26T00:38:47;2.75;;;1.90;;
12024;SDS011;6073;53.230;10.444;2024-02-26T00:41:19;2.72;;;2.30;;
12024;SDS011;6073;53.230;10.444;2024-02-26T00:43:46;4.28;;;2.35;;
12024;SDS011;6073;53.230;10.444;2024-02-26T00:46:11;4.50;;;2.22;;
12024;SDS011;6073;53.230;10.444;2024-02-26T00:48:37;2.78;;;1.85;;
12024;SDS011;6073;53.230;10.444;2024-02-26T00:51:03;3.25;;;2.40;;
12024;SDS011;6073;53.230;10.444;2024-02-26T00:53:33;2.97;;;2.00;;
12024;SDS011;6073;53.230;10.444;2024-02-26T00:55:59;2.20;;;1.90;;
12024;SDS011;6073;53.230;10.444;2024-02-26T00:58:25;2.83;;;2.00;;
12024;SDS011;6073;53.230;10.444;2024-02-26T01:00:50;2.67;;;2.17;;
12024;SDS011;6073;53.230;10.444;2024-02-26T01:03:17;3.53;;;2.40;;
12024;SDS011;6073;53.230;10.444;2024-02-26T01:05:43;2.33;;;2.13;;
12024;SDS011;6073;53.230;10.444;2024-02-26T01:08:08;3.28;;;2.22;;
12024;SDS011;6073;53.230;10.444;2024-02-26T01:10:34;3.22;;;2.00;;
12024;SDS011;6073;53.230;10.444;2024-02-26T01:12:59;3.95;;;2.33;;
12024;SDS011;6073;53.230;10.444;2024-02-26T01:15:25;3.42;;;2.30;;
12024;SDS011;6073;53.230;10.444;2024-02-26T01:17:51;2.63;;;2.22;;
12024;SDS011;6073;53.230;10.444;2024-02-26T01:20:17;2.83;;;2.33;;
12024;SDS011;6073;53.230;10.444;2024-02-26T01:22:43;1.85;;;1.70;;
12024;SDS011;6073;53.230;10.444;2024-02-26T01:25:08;2.10;;;1.90;;
12024;SDS011;6073;53.230;10.444;2024-02-26T01:27:34;3.05;;;2.28;;
12024;SDS011;6073;53.230;10.444;2024-02-26T01:30:02;2.70;;;2.50;;
12024;SDS011;6073;53.230;10.444;2024-02-26T01:32:29;3.42;;;2.17;;
12024;SDS011;6073;53.230;10.444;2024-02-26T01:34:55;2.90;;;2.60;;
12024;SDS011;6073;53.230;10.444;2024-02-26T01:37:20;2.90;;;2.20;;
12024;SDS011;6073;53.230;10.444;2024-02-26T01:39:46;3.38;;;2.42;;
12024;SDS011;6073;53.230;10.444;2024-02-26T01:42:11;2.95;;;2.33;;
12024;SDS011;6073;53.230;10.444;2024-02-26T01:44:37;3.45;;;2.30;;
12024;SDS011;6073;53.230;10.444;2024-02-26T01:47:03;4.30;;;2.25;;
12024;SDS011;6073;53.230;10.444;2024-02-26T01:49:33;2.92;;;2.40;;
12024;SDS011;6073;53.230;10.444;2024-02-26T01:52:00;3.33;;;2.42;;
12024;SDS011;6073;53.230;10.444;2024-02-26T01:54:26;5.28;;;2.45;;
12024;SDS011;6073;53.230;10.444;2024-02-26T01:56:52;2.28;;;2.08;;
12024;SDS011;6073;53.230;10.444;2024-02-26T01:59:19;3.13;;;2.47;;
12024;SDS011;6073;53.230;10.444;2024-02-26T02:01:45;3.90;;;2.58;;
12024;SDS011;6073;53.230;10.444;2024-02-26T02:04:16;2.83;;;2.55;;
12024;SDS011;6073;53.230;10.444;2024-02-26T02:06:43;3.35;;;2.85;;
12024;SDS011;6073;53.230;10.444;2024-02-26T02:09:11;3.95;;;2.70;;
12024;SDS011;6073;53.230;10.444;2024-02-26T02:11:36;3.00;;;2.70;;
12024;SDS011;6073;53.230;10.444;2024-02-26T02:14:02;5.35;;;2.85;;
12024;SDS011;6073;53.230;10.444;2024-02-26T02:16:28;3.30;;;3.00;;
12024;SDS011;6073;53.230;10.444;2024-02-26T02:18:54;3.70;;;2.65;;
12024;SDS011;6073;53.230;10.444;2024-02-26T02:21:19;3.38;;;2.50;;
12024;SDS011;6073;53.230;10.444;2024-02-26T02:23:45;4.70;;;2.72;;
12024;SDS011;6073;53.230;10.444;2024-02-26T02:26:12;3.05;;;2.70;;
12024;SDS011;6073;53.230;10.444;2024-02-26T02:28:38;3.13;;;2.70;;
12024;SDS011;6073;53.230;10.444;2024-02-26T02:31:05;5.57;;;3.00;;
12024;SDS011;6073;53.230;10.444;2024-02-26T02:33:31;4.65;;;2.97;;
12024;SDS011;6073;53.230;10.444;2024-02-26T02:35:57;4.68;;;2.90;;
12024;SDS011;6073;53.230;10.444;2024-02-26T02:38:23;3.60;;;2.70;;
12024;SDS011;6073;53.230;10.444;2024-02-26T02:40:51;4.28;;;3.08;;
12024;SDS011;6073;53.230;10.444;2024-02-26T02:43:17;3.28;;;2.40;;
12024;SDS011;6073;53.230;10.444;2024-02-26T02:45:42;3.95;;;2.60;;
12024;SDS011;6073;53.230;10.444;2024-02-26T02:48:08;3.88;;;3.10;;
12024;SDS011;6073;53.230;10.444;2024-02-26T02:50:34;7.05;;;2.72;;
12024;SDS011;6073;53.230;10.444;2024-02-26T02:52:59;3.22;;;2.80;;
12024;SDS011;6073;53.230;10.444;2024-02-26T02:55:25;3.05;;;2.60;;
12024;SDS011;6073;53.230;10.444;2024-02-26T02:57:50;3.78;;;2.67;;
12024;SDS011;6073;53.230;10.444;2024-02-26T03:00:16;4.03;;;2.70;;
12024;SDS011;6073;53.230;10.444;2024-02-26T03:02:42;4.15;;;3.08;;
12024;SDS011;6073;53.230;10.444;2024-02-26T03:05:09;2.72;;;2.50;;
12024;SDS011;6073;53.230;10.444;2024-02-26T03:07:35;4.05;;;2.78;;
12024;SDS011;6073;53.230;10.444;2024-02-26T03:10:01;3.00;;;2.60;;
12024;SDS011;6073;53.230;10.444;2024-02-26T03:12:26;2.85;;;2.55;;
12024;SDS011;6073;53.230;10.444;2024-02-26T03:14:52;4.20;;;2.67;;
12024;SDS011;6073;53.230;10.444;2024-02-26T03:17:19;3.78;;;2.90;;
12024;SDS011;6073;53.230;10.444;2024-02-26T03:19:45;2.67;;;2.40;;
12024;SDS011;6073;53.230;10.444;2024-02-26T03:22:12;2.63;;;2.30;;
12024;SDS011;6073;53.230;10.444;2024-02-26T03:24:38;3.42;;;2.45;;
12024;SDS011;6073;53.230;10.444;2024-02-26T03:27:04;2.95;;;2.40;;
12024;SDS011;6073;53.230;10.444;2024-02-26T03:29:34;2.55;;;2.10;;
12024;SDS011;6073;53.230;10.444;2024-02-26T03:32:00;2.67;;;2.25;;
12024;SDS011;6073;53.230;10.444;2024-02-26T03:34:26;3.65;;;2.80;;
12024;SDS011;6073;53.230;10.444;2024-02-26T03:36:53;4.75;;;2.30;;
12024;SDS011;6073;53.230;10.444;2024-02-26T03:39:18;4.03;;;2.60;;
12024;SDS011;6073;53.230;10.444;2024-02-26T03:41:44;2.85;;;2.35;;
12024;SDS011;6073;53.230;10.444;2024-02-26T03:44:10;3.08;;;2.75;;
12024;SDS011;6073;53.230;10.444;2024-02-26T03:46:35;4.95;;;2.30;;
12024;SDS011;6073;53.230;10.444;2024-02-26T03:49:01;4.45;;;2.58;;
12024;SDS011;6073;53.230;10.444;2024-02-26T03:51:27;3.08;;;2.53;;
12024;SDS011;6073;53.230;10.444;2024-02-26T03:53:56;3.08;;;2.35;;
12024;SDS011;6073;53.230;10.444;2024-02-26T03:56:23;3.90;;;2.35;;
12024;SDS011;6073;53.230;10.444;2024-02-26T03:58:48;2.50;;;2.30;;
12024;SDS011;6073;53.230;10.444;2024-02-26T04:01:14;3.20;;;2.50;;
12024;SDS011;6073;53.230;10.444;2024-02-26T04:03:40;3.65;;;2.25;;
12024;SDS011;6073;53.230;10.444;2024-02-26T04:06:08;3.30;;;2.22;;
12024;SDS011;6073;53.230;10.444;2024-02-26T04:08:35;3.47;;;2.38;;
12024;SDS011;6073;53.230;10.444;2024-02-26T04:11:01;2.72;;;2.30;;
12024;SDS011;6073;53.230;10.444;2024-02-26T04:13:32;4.40;;;2.42;;
12024;SDS011;6073;53.230;10.444;2024-02-26T04:15:57;2.58;;;2.15;;
12024;SDS011;6073;53.230;10.444;2024-02-26T04:18:32;3.78;;;2.53;;
12024;SDS011;6073;53.230;10.444;2024-02-26T04:20:58;3.05;;;2.63;;
12024;SDS011;6073;53.230;10.444;2024-02-26T04:23:26;3.08;;;2.30;;
12024;SDS011;6073;53.230;10.444;2024-02-26T04:25:52;3.70;;;2.38;;
12024;SDS011;6073;53.230;10.444;2024-02-26T04:28:18;3.08;;;2.50;;
12024;SDS011;6073;53.230;10.444;2024-02-26T04:30:45;4.68;;;2.50;;
12024;SDS011;6073;53.230;10.444;2024-02-26T04:33:12;2.70;;;2.35;;
12024;SDS011;6073;53.230;10.444;2024-02-26T04:35:37;3.25;;;2.50;;
12024;SDS011;6073;53.230;10.444;2024-02-26T04:38:03;3.95;;;2.28;;
12024;SDS011;6073;53.230;10.444;2024-02-26T04:40:28;5.50;;;2.63;;
12024;SDS011;6073;53.230;10.444;2024-02-26T04:42:54;3.63;;;2.35;;
12024;SDS011;6073;53.230;10.444;2024-02-26T04:45:20;3.30;;;2.50;;
12024;SDS011;6073;53.230;10.444;2024-02-26T04:47:45;3.05;;;2.20;;
12024;SDS011;6073;53.230;10.444;2024-02-26T04:50:12;2.45;;;2.10;;
12024;SDS011;6073;53.230;10.444;2024-02-26T04:52:37;2.15;;;1.92;;
12024;SDS011;6073;53.230;10.444;2024-02-26T04:55:03;4.95;;;2.13;;
12024;SDS011;6073;53.230;10.444;2024-02-26T04:57:29;2.65;;;2.30;;
12024;SDS011;6073;53.230;10.444;2024-02-26T04:59:54;2.75;;;2.03;;
12024;SDS011;6073;53.230;10.444;2024-02-26T05:02:20;3.30;;;2.05;;
12024;SDS011;6073;53.230;10.444;2024-02-26T05:04:46;2.28;;;1.98;;
12024;SDS011;6073;53.230;10.444;2024-02-26T05:07:11;2.67;;;2.10;;
12024;SDS011;6073;53.230;10.444;2024-02-26T05:09:37;3.13;;;2.20;;
12024;SDS011;6073;53.230;10.444;2024-02-26T05:12:03;3.10;;;2.40;;
12024;SDS011;6073;53.230;10.444;2024-02-26T05:14:29;3.15;;;2.22;;
12024;SDS011;6073;53.230;10.444;2024-02-26T05:16:54;2.83;;;2.45;;
12024;SDS011;6073;53.230;10.444;2024-02-26T05:19:21;3.95;;;2.75;;
12024;SDS011;6073;53.230;10.444;2024-02-26T05:21:46;4.50;;;2.33;;
12024;SDS011;6073;53.230;10.444;2024-02-26T05:24:14;3.10;;;2.13;;
12024;SDS011;6073;53.230;10.444;2024-02-26T05:26:40;4.43;;;2.72;;
12024;SDS011;6073;53.230;10.444;2024-02-26T05:29:06;4.25;;;2.58;;
12024;SDS011;6073;53.230;10.444;2024-02-26T05:31:31;3.92;;;2.33;;
12024;SDS011;6073;53.230;10.444;2024-02-26T05:33:57;3.30;;;2.45;;
12024;SDS011;6073;53.230;10.444;2024-02-26T05:36:23;4.32;;;2.67;;
12024;SDS011;6073;53.230;10.444;2024-02-26T05:39:54;4.07;;;2.67;;
12024;SDS011;6073;53.230;10.444;2024-02-26T05:42:47;3.45;;;2.58;;
12024;SDS011;6073;53.230;10.444;2024-02-26T05:45:21;4.85;;;2.85;;
12024;SDS011;6073;53.230;10.444;2024-02-26T05:51:30;3.17;;;2.70;;
12024;SDS011;6073;53.230;10.444;2024-02-26T05:53:58;3.25;;;2.33;;
12024;SDS011;6073;53.230;10.444;2024-02-26T05:56:34;4.90;;;2.95;;
12024;SDS011;6073;53.230;10.444;2024-02-26T05:58:59;3.58;;;2.85;;
12024;SDS011;6073;53.230;10.444;2024-02-26T06:01:28;3.58;;;2.30;;
12024;SDS011;6073;53.230;10.444;2024-02-26T06:03:58;4.70;;;2.50;;
12024;SDS011;6073;53.230;10.444;2024-02-26T06:06:29;4.07;;;2.67;;
12024;SDS011;6073;53.230;10.444;2024-02-26T06:09:02;2.88;;;2.53;;
12024;SDS011;6073;53.230;10.444;2024-02-26T06:11:33;3.28;;;2.67;;
12024;SDS011;6073;53.230;10.444;2024-02-26T06:13:59;4.10;;;3.15;;
12024;SDS011;6073;53.230;10.444;2024-02-26T06:16:27;3.05;;;2.15;;
12024;SDS011;6073;53.230;10.444;2024-02-26T06:18:53;3.10;;;2.45;;
12024;SDS011;6073;53.230;10.444;2024-02-26T06:21:25;5.28;;;2.30;;
12024;SDS011;6073;53.230;10.444;2024-02-26T06:24:08;3.72;;;2.20;;
12024;SDS011;6073;53.230;10.444;2024-02-26T06:26:58;2.67;;;2.35;;
12024;SDS011;6073;53.230;10.444;2024-02-26T06:32:38;3.75;;;2.72;;
12024;SDS011;6073;53.230;10.444;2024-02-26T06:37:53;4.55;;;3.42;;
12024;SDS011;6073;53.230;10.444;2024-02-26T06:40:21;5.03;;;3.92;;
12024;SDS011;6073;53.230;10.444;2024-02-26T06:43:01;4.47;;;3.30;;
12024;SDS011;6073;53.230;10.444;2024-02-26T06:45:35;7.22;;;3.95;;
12024;SDS011;6073;53.230;10.444;2024-02-26T06:48:03;4.75;;;3.70;;
12024;SDS011;6073;53.230;10.444;2024-02-26T06:50:29;5.00;;;4.00;;
12024;SDS011;6073;53.230;10.444;2024-02-26T06:52:54;6.43;;;4.53;;
12024;SDS011;6073;53.230;10.444;2024-02-26T06:55:20;5.53;;;4.20;;
12024;SDS011;6073;53.230;10.444;2024-02-26T06:57:46;5.53;;;4.13;;
12024;SDS011;6073;53.230;10.444;2024-02-26T07:01:12;4.70;;;4.07;;
12024;SDS011;6073;53.230;10.444;2024-02-26T07:03:29;5.72;;;3.88;;
12024;SDS011;6073;53.230;10.444;2024-02-26T07:08:52;5.50;;;4.35;;
12024;SDS011;6073;53.230;10.444;2024-02-26T07:11:37;4.60;;;3.60;;
12024;SDS011;6073;53.230;10.444;2024-02-26T07:14:11;4.22;;;3.25;;
12024;SDS011;6073;53.230;10.444;2024-02-26T07:16:51;4.40;;;3.67;;
12024;SDS011;6073;53.230;10.444;2024-02-26T07:19:49;10.13;;;4.60;;
12024;SDS011;6073;53.230;10.444;2024-02-26T07:22:14;8.55;;;5.15;;
12024;SDS011;6073;53.230;10.444;2024-02-26T07:24:49;7.13;;;4.05;;
12024;SDS011;6073;53.230;10.444;2024-02-26T07:27:18;6.43;;;4.28;;
12024;SDS011;6073;53.230;10.444;2024-02-26T07:29:43;6.78;;;3.78;;
12024;SDS011;6073;53.230;10.444;2024-02-26T07:32:14;11.10;;;6.07;;
12024;SDS011;6073;53.230;10.444;2024-02-26T07:34:40;9.38;;;4.82;;
12024;SDS011;6073;53.230;10.444;2024-02-26T07:37:10;15.07;;;5.45;;
12024;SDS011;6073;53.230;10.444;2024-02-26T07:39:36;17.77;;;6.93;;
12024;SDS011;6073;53.230;10.444;2024-02-26T07:42:01;7.95;;;4.45;;
12024;SDS011;6073;53.230;10.444;2024-02-26T07:44:27;6.45;;;3.33;;
12024;SDS011;6073;53.230;10.444;2024-02-26T07:46:53;5.20;;;3.90;;
12024;SDS011;6073;53.230;10.444;2024-02-26T07:49:18;5.25;;;3.35;;
12024;SDS011;6073;53.230;10.444;2024-02-26T07:51:44;5.05;;;3.40;;
12024;SDS011;6073;53.230;10.444;2024-02-26T07:54:09;4.25;;;3.25;;
12024;SDS011;6073;53.230;10.444;2024-02-26T07:56:35;3.22;;;2.85;;
12024;SDS011;6073;53.230;10.444;2024-02-26T07:59:00;4.93;;;3.17;;
12024;SDS011;6073;53.230;10.444;2024-02-26T08:01:26;7.05;;;3.50;;
12024;SDS011;6073;53.230;10.444;2024-02-26T08:03:55;3.83;;;3.17;;
12024;SDS011;6073;53.230;10.444;2024-02-26T08:06:20;4.60;;;3.58;;
12024;SDS011;6073;53.230;10.444;2024-02-26T08:08:46;3.83;;;3.33;;
12024;SDS011;6073;53.230;10.444;2024-02-26T08:11:13;4.03;;;3.38;;
12024;SDS011;6073;53.230;10.444;2024-02-26T08:13:42;6.65;;;3.90;;
12024;SDS011;6073;53.230;10.444;2024-02-26T08:16:08;4.60;;;3.58;;
12024;SDS011;6073;53.230;10.444;2024-02-26T08:18:34;4.57;;;3.92;;
12024;SDS011;6073;53.230;10.444;2024-02-26T08:20:59;3.67;;;3.30;;
12024;SDS011;6073;53.230;10.444;2024-02-26T08:23:25;5.60;;;3.65;;
12024;SDS011;6073;53.230;10.444;2024-02-26T08:25:51;4.10;;;3.25;;
12024;SDS011;6073;53.230;10.444;2024-02-26T08:28:16;5.25;;;3.50;;
12024;SDS011;6073;53.230;10.444;2024-02-26T08:30:43;3.75;;;3.30;;
12024;SDS011;6073;53.230;10.444;2024-02-26T08:33:08;4.70;;;3.30;;
12024;SDS011;6073;53.230;10.444;2024-02-26T08:35:35;3.92;;;3.50;;
12024;SDS011;6073;53.230;10.444;2024-02-26T08:38:01;5.93;;;3.88;;
12024;SDS011;6073;53.230;10.444;2024-02-26T08:40:27;13.55;;;4.40;;
12024;SDS011;6073;53.230;10.444;2024-02-26T08:42:53;5.40;;;4.03;;
12024;SDS011;6073;53.230;10.444;2024-02-26T08:45:19;6.85;;;4.50;;
12024;SDS011;6073;53.230;10.444;2024-02-26T08:47:45;9.98;;;5.90;;
12024;SDS011;6073;53.230;10.444;2024-02-26T08:50:29;8.52;;;4.85;;
12024;SDS011;6073;53.230;10.444;2024-02-26T08:52:54;4.35;;;3.88;;
12024;SDS011;6073;53.230;10.444;2024-02-26T08:55:20;5.78;;;4.43;;
12024;SDS011;6073;53.230;10.444;2024-02-26T08:57:56;5.85;;;3.95;;
12024;SDS011;6073;53.230;10.444;2024-02-26T09:00:21;6.25;;;4.07;;
12024;SDS011;6073;53.230;10.444;2024-02-26T09:02:47;4.15;;;3.75;;
12024;SDS011;6073;53.230;10.444;2024-02-26T09:05:14;6.43;;;3.90;;
12024;SDS011;6073;53.230;10.444;2024-02-26T09:07:39;4.80;;;4.00;;
12024;SDS011;6073;53.230;10.444;2024-02-26T09:10:05;5.35;;;4.00;;
12024;SDS011;6073;53.230;10.444;2024-02-26T09:12:35;4.28;;;3.60;;
12024;SDS011;6073;53.230;10.444;2024-02-26T09:15:06;5.05;;;3.70;;
12024;SDS011;6073;53.230;10.444;2024-02-26T09:17:32;4.53;;;3.60;;
12024;SDS011;6073;53.230;10.444;2024-02-26T09:19:58;3.58;;;3.28;;
12024;SDS011;6073;53.230;10.444;2024-02-26T09:22:23;4.97;;;3.85;;
12024;SDS011;6073;53.230;10.444;2024-02-26T09:24:49;4.20;;;3.67;;
12024;SDS011;6073;53.230;10.444;2024-02-26T09:27:35;4.63;;;3.38;;
12024;SDS011;6073;53.230;10.444;2024-02-26T09:30:00;3.50;;;3.17;;
12024;SDS011;6073;53.230;10.444;2024-02-26T09:32:26;3.35;;;3.05;;
12024;SDS011;6073;53.230;10.444;2024-02-26T09:34:51;4.18;;;3.30;;
12024;SDS011;6073;53.230;10.444;2024-02-26T09:37:17;4.05;;;3.00;;
12024;SDS011;6073;53.230;10.444;2024-02-26T09:39:42;4.63;;;3.35;;
12024;SDS011;6073;53.230;10.444;2024-02-26T09:42:08;4.40;;;3.95;;
12024;SDS011;6073;53.230;10.444;2024-02-26T09:44:36;3.92;;;3.53;;
12024;SDS011;6073;53.230;10.444;2024-02-26T09:47:07;5.15;;;3.58;;
12024;SDS011;6073;53.230;10.444;2024-02-26T09:49:35;3.28;;;2.97;;
12024;SDS011;6073;53.230;10.444;2024-02-26T09:52:01;4.38;;;3.13;;
12024;SDS011;6073;53.230;10.444;2024-02-26T09:54:31;3.88;;;3.38;;
12024;SDS011;6073;53.230;10.444;2024-02-26T09:56:59;4.05;;;3.60;;
12024;SDS011;6073;53.230;10.444;2024-02-26T09:59:27;3.25;;;2.95;;
12024;SDS011;6073;53.230;10.444;2024-02-26T10:01:57;3.95;;;3.55;;
12024;SDS011;6073;53.230;10.444;2024-02-26T10:04:30;3.60;;;3.30;;
12024;SDS011;6073;53.230;10.444;2024-02-26T10:06:59;4.38;;;3.20;;
12024;SDS011;6073;53.230;10.444;2024-02-26T10:09:27;3.58;;;3.15;;
12024;SDS011;6073;53.230;10.444;2024-02-26T10:11:53;4.15;;;3.22;;
12024;SDS011;6073;53.230;10.444;2024-02-26T10:14:20;5.22;;;3.58;;
12024;SDS011;6073;53.230;10.444;2024-02-26T10:16:46;4.13;;;3.28;;
12024;SDS011;6073;53.230;10.444;2024-02-26T10:19:24;3.63;;;3.30;;
12024;SDS011;6073;53.230;10.444;2024-02-26T10:21:54;3.35;;;3.05;;
12024;SDS011;6073;53.230;10.444;2024-02-26T10:27:08;4.40;;;3.58;;
12024;SDS011;6073;53.230;10.444;2024-02-26T10:29:34;5.57;;;3.92;;
12024;SDS011;6073;53.230;10.444;2024-02-26T10:32:14;5.45;;;3.00;;
12024;SDS011;6073;53.230;10.444;2024-02-26T10:34:55;4.55;;;3.20;;
12024;SDS011;6073;53.230;10.444;2024-02-26T10:37:22;4.78;;;3.50;;
12024;SDS011;6073;53.230;10.444;2024-02-26T10:39:47;3.35;;;3.03;;
12024;SDS011;6073;53.230;10.444;2024-02-26T10:42:16;3.00;;;2.70;;
12024;SDS011;6073;53.230;10.444;2024-02-26T10:44:57;3.42;;;3.08;;
12024;SDS011;6073;53.230;10.444;2024-02-26T10:47:40;3.58;;;2.92;;
12024;SDS011;6073;53.230;10.444;2024-02-26T10:50:13;3.80;;;3.22;;
12024;SDS011;6073;53.230;10.444;2024-02-26T10:52:42;3.47;;;2.63;;
12024;SDS011;6073;53.230;10.444;2024-02-26T10:55:08;3.30;;;2.45;;
12024;SDS011;6073;53.230;10.444;2024-02-26T10:57:44;4.05;;;2.55;;
12024;SDS011;6073;53.230;10.444;2024-02-26T11:00:10;3.45;;;2.65;;
12024;SDS011;6073;53.230;10.444;2024-02-26T11:06:16;2.95;;;2.70;;
12024;SDS011;6073;53.230;10.444;2024-02-26T11:08:47;3.47;;;2.40;;
12024;SDS011;6073;53.230;10.444;2024-02-26T11:11:23;3.30;;;2.40;;
12024;SDS011;6073;53.230;10.444;2024-02-26T11:14:01;3.28;;;2.45;;
12024;SDS011;6073;53.230;10.444;2024-02-26T11:16:30;3.45;;;2.70;;
12024;SDS011;6073;53.230;10.444;2024-02-26T11:22:33;4.90;;;2.60;;
12024;SDS011;6073;53.230;10.444;2024-02-26T11:25:01;3.13;;;2.40;;
12024;SDS011;6073;53.230;10.444;2024-02-26T11:27:33;3.45;;;2.60;;
12024;SDS011;6073;53.230;10.444;2024-02-26T11:30:05;3.17;;;2.50;;
12024;SDS011;6073;53.230;10.444;2024-02-26T11:32:45;3.15;;;2.42;;
12024;SDS011;6073;53.230;10.444;2024-02-26T11:35:17;2.67;;;2.10;;
12024;SDS011;6073;53.230;10.444;2024-02-26T11:40:54;3.45;;;2.30;;
12024;SDS011;6073;53.230;10.444;2024-02-26T11:46:29;2.70;;;2.00;;
12024;SDS011;6073;53.230;10.444;2024-02-26T11:51:32;2.25;;;1.98;;
12024;SDS011;6073;53.230;10.444;2024-02-26T11:53:59;2.28;;;2.03;;
12024;SDS011;6073;53.230;10.444;2024-02-26T11:56:25;2.58;;;2.05;;
12024;SDS011;6073;53.230;10.444;2024-02-26T11:59:00;3.13;;;1.90;;
12024;SDS011;6073;53.230;10.444;2024-02-26T12:01:44;2.30;;;2.10;;
12024;SDS011;6073;53.230;10.444;2024-02-26T12:04:13;3.35;;;1.98;;
12024;SDS011;6073;53.230;10.444;2024-02-26T12:06:55;2.55;;;1.90;;
12024;SDS011;6073;53.230;10.444;2024-02-26T12:09:41;2.17;;;1.80;;
12024;SDS011;6073;53.230;10.444;2024-02-26T12:12:08;2.53;;;2.15;;
12024;SDS011;6073;53.230;10.444;2024-02-26T12:17:24;2.33;;;2.00;;
12024;SDS011;6073;53.230;10.444;2024-02-26T12:19:50;2.13;;;1.80;;
12024;SDS011;6073;53.230;10.444;2024-02-26T12:22:18;2.60;;;2.10;;
12024;SDS011;6073;53.230;10.444;2024-02-26T12:24:44;2.72;;;2.15;;
12024;SDS011;6073;53.230;10.444;2024-02-26T12:27:10;1.77;;;1.67;;
12024;SDS011;6073;53.230;10.444;2024-02-26T12:29:35;2.35;;;1.70;;
12024;SDS011;6073;53.230;10.444;2024-02-26T12:32:03;2.40;;;2.10;;
12024;SDS011;6073;53.230;10.444;2024-02-26T12:37:34;2.38;;;1.88;;
12024;SDS011;6073;53.230;10.444;2024-02-26T12:40:03;2.65;;;2.10;;
12024;SDS011;6073;53.230;10.444;2024-02-26T12:42:31;2.28;;;2.05;;
12024;SDS011;6073;53.230;10.444;2024-02-26T12:48:12;2.80;;;2.47;;
12024;SDS011;6073;53.230;10.444;2024-02-26T12:50:44;2.67;;;2.00;;
12024;SDS011;6073;53.230;10.444;2024-02-26T12:53:12;2.85;;;2.40;;
12024;SDS011;6073;53.230;10.444;2024-02-26T12:58:33;2.13;;;1.92;;
12024;SDS011;6073;53.230;10.444;2024-02-26T13:01:13;2.42;;;2.22;;
12024;SDS011;6073;53.230;10.444;2024-02-26T13:06:31;2.70;;;2.42;;
12024;SDS011;6073;53.230;10.444;2024-02-26T13:09:36;2.40;;;2.20;;
12024;SDS011;6073;53.230;10.444;2024-02-26T13:12:31;2.15;;;1.90;;
12024;SDS011;6073;53.230;10.444;2024-02-26T13:15:04;1.67;;;1.58;;
12024;SDS011;6073;53.230;10.444;2024-02-26T13:17:42;3.58;;;1.80;;
12024;SDS011;6073;53.230;10.444;2024-02-26T13:20:43;2.13;;;1.88;;
12024;SDS011;6073;53.230;10.444;2024-02-26T13:23:34;1.85;;;1.70;;
12024;SDS011;6073;53.230;10.444;2024-02-26T13:26:03;2.08;;;1.60;;
12024;SDS011;6073;53.230;10.444;2024-02-26T13:28:41;2.95;;;1.67;;
12024;SDS011;6073;53.230;10.444;2024-02-26T13:31:10;1.80;;;1.70;;
12024;SDS011;6073;53.230;10.444;2024-02-26T13:33:45;1.77;;;1.48;;
12024;SDS011;6073;53.230;10.444;2024-02-26T13:36:12;2.38;;;1.95;;
12024;SDS011;6073;53.230;10.444;2024-02-26T13:38:55;3.38;;;1.80;;
12024;SDS011;6073;53.230;10.444;2024-02-26T13:44:50;2.50;;;1.60;;
12024;SDS011;6073;53.230;10.444;2024-02-26T13:50:22;1.70;;;1.60;;
12024;SDS011;6073;53.230;10.444;2024-02-26T13:55:55;3.03;;;1.70;;
12024;SDS011;6073;53.230;10.444;2024-02-26T13:58:20;2.08;;;1.77;;
12024;SDS011;6073;53.230;10.444;2024-02-26T14:00:48;2.03;;;1.83;;
12024;SDS011;6073;53.230;10.444;2024-02-26T14:03:14;2.45;;;2.25;;
12024;SDS011;6073;53.230;10.444;2024-02-26T14:05:41;2.10;;;1.75;;
12024;SDS011;6073;53.230;10.444;2024-02-26T14:08:06;2.53;;;1.88;;
12024;SDS011;6073;53.230;10.444;2024-02-26T14:10:32;2.13;;;1.90;;
12024;SDS011;6073;53.230;10.444;2024-02-26T14:12:58;2.30;;;2.10;;
12024;SDS011;6073;53.230;10.444;2024-02-26T14:15:24;2.38;;;2.10;;
12024;SDS011;6073;53.230;10.444;2024-02-26T14:17:52;2.20;;;2.00;;
12024;SDS011;6073;53.230;10.444;2024-02-26T14:20:21;2.55;;;2.00;;
12024;SDS011;6073;53.230;10.444;2024-02-26T14:22:47;3.60;;;2.40;;
12024;SDS011;6073;53.230;10.444;2024-02-26T14:25:13;2.85;;;2.47;;
12024;SDS011;6073;53.230;10.444;2024-02-26T14:27:39;2.20;;;1.92;;
12024;SDS011;6073;53.230;10.444;2024-02-26T14:30:05;2.97;;;2.30;;
12024;SDS011;6073;53.230;10.444;2024-02-26T14:32:31;4.10;;;2.97;;
12024;SDS011;6073;53.230;10.444;2024-02-26T14:35:00;3.17;;;2.88;;
12024;SDS011;6073;53.230;10.444;2024-02-26T14:37:25;4.18;;;3.30;;
12024;SDS011;6073;53.230;10.444;2024-02-26T14:39:51;4.13;;;2.83;;
12024;SDS011;6073;53.230;10.444;2024-02-26T14:42:18;4.40;;;2.78;;
12024;SDS011;6073;53.230;10.444;2024-02-26T14:44:43;3.28;;;2.88;;
12024;SDS011;6073;53.230;10.444;2024-02-26T14:47:09;3.00;;;2.70;;
12024;SDS011;6073;53.230;10.444;2024-02-26T14:49:35;4.03;;;3.00;;
12024;SDS011;6073;53.230;10.444;2024-02-26T14:52:00;3.25;;;2.95;;
12024;SDS011;6073;53.230;10.444;2024-02-26T14:54:28;3.42;;;2.83;;
12024;SDS011;6073;53.230;10.444;2024-02-26T14:56:57;3.65;;;3.35;;
12024;SDS011;6073;53.230;10.444;2024-02-26T14:59:23;5.05;;;3.97;;
12024;SDS011;6073;53.230;10.444;2024-02-26T15:01:48;4.90;;;4.38;;
12024;SDS011;6073;53.230;10.444;2024-02-26T15:04:14;5.40;;;4.45;;
12024;SDS011;6073;53.230;10.444;2024-02-26T15:06:40;5.18;;;4.00;;
12024;SDS011;6073;53.230;10.444;2024-02-26T15:09:06;4.57;;;3.80;;
12024;SDS011;6073;53.230;10.444;2024-02-26T15:11:32;5.05;;;4.30;;
12024;SDS011;6073;53.230;10.444;2024-02-26T15:13:57;5.28;;;4.30;;
12024;SDS011;6073;53.230;10.444;2024-02-26T15:16:23;6.13;;;4.57;;
12024;SDS011;6073;53.230;10.444;2024-02-26T15:18:48;7.45;;;5.82;;
12024;SDS011;6073;53.230;10.444;2024-02-26T15:21:14;7.90;;;5.53;;
12024;SDS011;6073;53.230;10.444;2024-02-26T15:23:40;7.88;;;6.15;;
12024;SDS011;6073;53.230;10.444;2024-02-26T15:26:11;6.07;;;5.38;;
12024;SDS011;6073;53.230;10.444;2024-02-26T15:28:37;8.88;;;6.40;;
12024;SDS011;6073;53.230;10.444;2024-02-26T15:31:04;8.80;;;6.40;;
12024;SDS011;6073;53.230;10.444;2024-02-26T15:33:30;8.52;;;6.22;;
12024;SDS011;6073;53.230;10.444;2024-02-26T15:35:55;8.77;;;6.28;;
12024;SDS011;6073;53.230;10.444;2024-02-26T15:38:21;9.30;;;6.72;;
12024;SDS011;6073;53.230;10.444;2024-02-26T15:40:46;8.27;;;6.18;;
12024;SDS011;6073;53.230;10.444;2024-02-26T15:43:12;8.30;;;6.18;;
12024;SDS011;6073;53.230;10.444;2024-02-26T15:45:38;7.70;;;6.05;;
12024;SDS011;6073;53.230;10.444;2024-02-26T15:48:04;9.85;;;6.70;;
12024;SDS011;6073;53.230;10.444;2024-02-26T15:50:30;9.23;;;6.45;;
12024;SDS011;6073;53.230;10.444;2024-02-26T15:52:55;9.02;;;6.82;;